createdAt,value
2023-03-04T00:00:05.738Z,9.80
2023-03-04T00:02:32.221Z,9.90
2023-03-04T00:04:58.696Z,9.90
2023-03-04T00:07:25.167Z,9.90
2023-03-04T00:09:51.647Z,9.80
2023-03-04T00:12:18.136Z,9.80
2023-03-04T00:14:44.632Z,9.80
2023-03-04T00:17:11.115Z,9.80
2023-03-04T00:19:37.573Z,9.80
2023-03-04T00:22:04.247Z,9.80
2023-03-04T00:24:30.921Z,9.80
2023-03-04T00:26:57.403Z,9.90
2023-03-04T00:29:23.871Z,9.90
2023-03-04T00:31:50.374Z,9.90
2023-03-04T00:34:16.891Z,9.90
2023-03-04T00:36:43.378Z,9.80
2023-03-04T00:39:09.832Z,9.80
2023-03-04T00:41:36.285Z,9.70
2023-03-04T00:44:02.763Z,9.70
2023-03-04T00:46:29.237Z,9.70
2023-03-04T00:48:55.723Z,9.70
2023-03-04T00:51:22.201Z,9.70
2023-03-04T00:53:48.678Z,9.80
2023-03-04T00:56:15.172Z,9.70
2023-03-04T00:58:41.651Z,9.70
2023-03-04T01:01:08.207Z,9.80
2023-03-04T01:03:34.733Z,9.80
2023-03-04T01:06:01.193Z,9.80
2023-03-04T01:08:27.688Z,9.80
2023-03-04T01:10:54.177Z,9.70
2023-03-04T01:13:21.340Z,9.70
2023-03-04T01:15:47.829Z,9.70
2023-03-04T01:18:14.395Z,9.60
2023-03-04T01:20:40.885Z,9.60
2023-03-04T01:23:07.395Z,9.70
2023-03-04T01:25:33.877Z,9.70
2023-03-04T01:28:00.355Z,9.70
2023-03-04T01:30:26.838Z,9.70
2023-03-04T01:32:53.490Z,9.70
2023-03-04T01:35:20.022Z,9.70
2023-03-04T01:37:46.563Z,9.70
2023-03-04T01:40:13.043Z,9.70
2023-03-04T01:42:39.535Z,9.70
2023-03-04T01:45:05.994Z,9.70
2023-03-04T01:47:32.485Z,9.70
2023-03-04T01:49:58.953Z,9.60
2023-03-04T01:52:25.442Z,9.70
2023-03-04T01:54:51.915Z,9.70
2023-03-04T01:57:18.438Z,9.70
2023-03-04T01:59:44.926Z,9.80
2023-03-04T02:02:11.378Z,9.80
2023-03-04T02:04:37.895Z,9.70
2023-03-04T02:07:04.434Z,9.70
2023-03-04T02:09:30.934Z,9.70
2023-03-04T02:11:57.398Z,9.80
2023-03-04T02:14:23.890Z,9.70
2023-03-04T02:16:50.421Z,9.80
2023-03-04T02:19:16.890Z,9.80
2023-03-04T02:21:43.370Z,9.80
2023-03-04T02:24:09.889Z,9.80
2023-03-04T02:26:36.350Z,9.80
2023-03-04T02:29:02.860Z,9.80
2023-03-04T02:31:29.354Z,9.70
2023-03-04T02:33:55.901Z,9.70
2023-03-04T02:36:22.401Z,9.70
2023-03-04T02:38:48.890Z,9.70
2023-03-04T02:41:15.381Z,9.70
2023-03-04T02:43:41.865Z,9.70
2023-03-04T02:46:08.417Z,9.70
2023-03-04T02:48:34.929Z,9.80
2023-03-04T02:51:01.408Z,9.80
2023-03-04T02:53:27.909Z,9.80
2023-03-04T02:55:54.401Z,9.70
2023-03-04T02:58:20.873Z,9.70
2023-03-04T03:00:47.340Z,9.80
2023-03-04T03:03:13.867Z,9.70
2023-03-04T03:05:40.380Z,9.70
2023-03-04T03:08:06.848Z,9.70
2023-03-04T03:10:33.333Z,9.80
2023-03-04T03:12:59.813Z,9.80
2023-03-04T03:15:26.306Z,9.80
2023-03-04T03:17:52.759Z,9.70
2023-03-04T03:20:19.247Z,9.70
2023-03-04T03:22:45.722Z,9.70
2023-03-04T03:25:12.203Z,9.70
2023-03-04T03:27:38.679Z,9.70
2023-03-04T03:30:05.173Z,9.70
2023-03-04T03:32:31.718Z,9.70
2023-03-04T03:34:58.243Z,9.70
2023-03-04T03:37:24.713Z,9.70
2023-03-04T03:39:51.215Z,9.70
2023-03-04T03:42:17.689Z,9.70
2023-03-04T03:44:44.193Z,9.70
2023-03-04T03:47:10.690Z,9.70
2023-03-04T03:49:37.171Z,9.70
2023-03-04T03:52:03.644Z,9.70
2023-03-04T03:54:30.124Z,9.70
2023-03-04T03:56:56.594Z,9.80
2023-03-04T03:59:23.076Z,9.70
2023-03-04T04:01:49.584Z,9.70
2023-03-04T04:04:16.099Z,9.70
2023-03-04T04:06:42.577Z,9.80
2023-03-04T04:09:09.033Z,9.80
2023-03-04T04:11:35.527Z,9.70
2023-03-04T04:14:02.006Z,9.70
2023-03-04T04:16:28.519Z,9.60
2023-03-04T04:18:54.985Z,9.60
2023-03-04T04:21:21.444Z,9.60
2023-03-04T04:23:47.920Z,9.60
2023-03-04T04:26:14.393Z,9.60
2023-03-04T04:28:40.852Z,9.60
2023-03-04T04:31:07.366Z,9.70
2023-03-04T04:33:33.849Z,9.70
2023-03-04T04:36:00.342Z,9.70
2023-03-04T04:38:26.841Z,9.70
2023-03-04T04:40:53.309Z,9.70
2023-03-04T04:43:19.750Z,9.70
2023-03-04T04:45:46.302Z,9.60
2023-03-04T04:48:12.821Z,9.70
2023-03-04T04:50:39.314Z,9.60
2023-03-04T04:53:05.791Z,9.70
2023-03-04T04:55:32.286Z,9.70
2023-03-04T04:57:58.762Z,9.70
2023-03-04T05:00:25.261Z,9.70
2023-03-04T05:02:51.768Z,9.70
2023-03-04T05:05:18.318Z,9.70
2023-03-04T05:07:44.785Z,9.70
2023-03-04T05:10:11.251Z,9.70
2023-03-04T05:12:37.882Z,9.70
2023-03-04T05:15:04.370Z,9.70
2023-03-04T05:17:30.838Z,9.70
2023-03-04T05:19:57.309Z,9.70
2023-03-04T05:22:23.794Z,9.60
2023-03-04T05:24:50.273Z,9.70
2023-03-04T05:27:16.755Z,9.70
2023-03-04T05:29:43.223Z,9.70
2023-03-04T05:32:09.730Z,9.70
2023-03-04T05:34:36.253Z,9.80
2023-03-04T05:37:02.720Z,9.70
2023-03-04T05:39:29.176Z,9.60
2023-03-04T05:41:55.658Z,9.60
2023-03-04T05:44:22.125Z,9.60
2023-03-04T05:46:48.677Z,9.60
2023-03-04T05:49:15.180Z,9.60
2023-03-04T05:51:41.681Z,9.60
2023-03-04T05:54:08.153Z,9.50
2023-03-04T05:56:34.645Z,9.50
2023-03-04T05:59:01.100Z,9.60
2023-03-04T06:01:27.625Z,9.60
2023-03-04T06:03:54.139Z,9.60
2023-03-04T06:06:20.652Z,9.60
2023-03-04T06:08:47.152Z,9.60
2023-03-04T06:11:13.658Z,9.60
2023-03-04T06:13:40.185Z,9.60
2023-03-04T06:16:06.738Z,9.60
2023-03-04T06:18:33.222Z,9.60
2023-03-04T06:20:59.760Z,9.60
2023-03-04T06:23:26.227Z,9.60
2023-03-04T06:25:52.721Z,9.70
2023-03-04T06:28:19.189Z,9.60
2023-03-04T06:30:45.682Z,9.60
2023-03-04T06:33:12.168Z,9.70
2023-03-04T06:35:38.691Z,9.80
2023-03-04T06:38:05.195Z,9.70
2023-03-04T06:40:31.713Z,9.70
2023-03-04T06:42:58.190Z,9.60
2023-03-04T06:45:24.671Z,9.60
2023-03-04T06:47:51.145Z,9.60
2023-03-04T06:50:17.611Z,9.60
2023-03-04T06:52:44.087Z,9.60
2023-03-04T06:55:10.564Z,9.60
2023-03-04T06:57:37.046Z,9.60
2023-03-04T07:00:03.534Z,9.60
2023-03-04T07:02:30.038Z,9.50
2023-03-04T07:04:56.518Z,9.60
2023-03-04T07:07:22.992Z,9.60
2023-03-04T07:09:49.459Z,9.60
2023-03-04T07:12:15.947Z,9.50
2023-03-04T07:14:42.422Z,9.60
2023-03-04T07:17:08.902Z,9.60
2023-03-04T07:19:35.358Z,9.60
2023-03-04T07:22:01.860Z,9.50
2023-03-04T07:24:28.342Z,9.50
2023-03-04T07:26:54.807Z,9.60
2023-03-04T07:29:21.280Z,9.60
2023-03-04T07:31:47.785Z,9.50
2023-03-04T07:34:14.283Z,9.50
2023-03-04T07:36:40.754Z,9.50
2023-03-04T07:39:07.238Z,9.50
2023-03-04T07:41:33.713Z,9.50
2023-03-04T07:44:00.203Z,9.50
2023-03-04T07:46:26.698Z,9.50
2023-03-04T07:48:53.243Z,9.50
2023-03-04T07:51:19.754Z,9.50
2023-03-04T07:53:46.213Z,9.50
2023-03-04T07:56:12.718Z,9.50
2023-03-04T07:58:39.211Z,9.60
2023-03-04T08:01:05.706Z,9.50
2023-03-04T08:03:32.177Z,9.50
2023-03-04T08:05:58.682Z,9.50
2023-03-04T08:08:25.162Z,9.60
2023-03-04T08:10:51.666Z,9.50
2023-03-04T08:13:18.144Z,9.50
2023-03-04T08:15:44.660Z,9.50
2023-03-04T08:18:11.151Z,9.40
2023-03-04T08:20:37.635Z,9.50
2023-03-04T08:23:04.101Z,9.50
2023-03-04T08:25:30.605Z,9.50
2023-03-04T08:27:57.090Z,9.50
2023-03-04T08:30:23.558Z,9.50
2023-03-04T08:32:50.103Z,9.50
2023-03-04T08:35:16.584Z,9.50
2023-03-04T08:37:43.043Z,9.50
2023-03-04T08:40:09.516Z,9.50
2023-03-04T08:42:36.010Z,9.40
2023-03-04T08:45:02.500Z,9.40
2023-03-04T08:47:28.979Z,9.40
2023-03-04T08:49:55.464Z,9.50
2023-03-04T08:52:21.948Z,9.50
2023-03-04T08:54:48.420Z,9.50
2023-03-04T08:57:14.928Z,9.50
2023-03-04T08:59:41.402Z,9.60
2023-03-04T09:02:07.979Z,9.50
2023-03-04T09:04:34.474Z,9.50
2023-03-04T09:07:00.974Z,9.50
2023-03-04T09:09:27.442Z,9.60
2023-03-04T09:11:53.934Z,9.60
2023-03-04T09:14:20.433Z,9.60
2023-03-04T09:16:46.949Z,9.60
2023-03-04T09:19:13.417Z,9.60
2023-03-04T09:21:39.891Z,9.60
2023-03-04T09:24:06.356Z,9.60
2023-03-04T09:26:32.865Z,9.60
2023-03-04T09:28:59.359Z,9.60
2023-03-04T09:31:25.897Z,9.60
2023-03-04T09:33:52.400Z,9.60
2023-03-04T09:36:18.888Z,9.50
2023-03-04T09:38:45.387Z,9.60
2023-03-04T09:41:11.855Z,9.50
2023-03-04T09:43:38.335Z,9.50
2023-03-04T09:46:04.806Z,9.50
2023-03-04T09:48:31.293Z,9.50
2023-03-04T09:50:57.763Z,9.50
2023-03-04T09:53:24.258Z,9.50
2023-03-04T09:55:50.724Z,9.50
2023-03-04T09:58:17.206Z,9.50
2023-03-04T10:00:43.743Z,9.50
2023-03-04T10:03:10.330Z,9.50
2023-03-04T10:05:36.862Z,9.60
2023-03-04T10:08:03.351Z,9.60
2023-03-04T10:10:29.843Z,9.60
2023-03-04T10:12:56.392Z,9.60
2023-03-04T10:15:22.871Z,9.60
2023-03-04T10:17:49.362Z,9.60
2023-03-04T10:20:15.821Z,9.60
2023-03-04T10:22:42.307Z,9.50
2023-03-04T10:25:08.760Z,9.50
2023-03-04T10:27:35.271Z,9.60
2023-03-04T10:30:01.743Z,9.60
2023-03-04T10:32:28.275Z,9.60
2023-03-04T10:34:54.794Z,9.60
2023-03-04T10:37:21.280Z,9.60
2023-03-04T10:39:47.752Z,9.60
2023-03-04T10:42:15.477Z,9.60
2023-03-04T10:44:42.164Z,9.60
2023-03-04T10:47:08.625Z,9.60
2023-03-04T10:49:35.112Z,9.60
2023-03-04T10:52:01.585Z,9.60
2023-03-04T10:54:28.095Z,9.60
2023-03-04T10:56:54.592Z,9.70
2023-03-04T10:59:21.076Z,9.60
2023-03-04T11:01:47.564Z,9.60
2023-03-04T11:04:14.055Z,9.60
2023-03-04T11:06:40.538Z,9.60
2023-03-04T11:09:07.022Z,9.70
2023-03-04T11:11:33.515Z,9.70
2023-03-04T11:13:59.981Z,9.60
2023-03-04T11:16:26.462Z,9.60
2023-03-04T11:18:52.983Z,9.70
2023-03-04T11:21:19.467Z,9.60
2023-03-04T11:23:45.963Z,9.60
2023-03-04T11:26:12.435Z,9.60
2023-03-04T11:28:38.913Z,9.70
2023-03-04T11:31:05.383Z,9.60
2023-03-04T11:33:31.880Z,9.70
2023-03-04T11:35:58.499Z,9.70
2023-03-04T11:38:25.061Z,9.70
2023-03-04T11:40:51.558Z,9.70
2023-03-04T11:43:18.054Z,9.70
2023-03-04T11:45:44.569Z,9.60
2023-03-04T11:48:11.067Z,9.60
2023-03-04T11:50:37.548Z,9.60
2023-03-04T11:53:04.018Z,9.70
2023-03-04T11:55:30.483Z,9.60
2023-03-04T11:57:56.953Z,9.60
2023-03-04T12:00:23.441Z,9.60
2023-03-04T12:02:49.916Z,9.70
2023-03-04T12:05:16.412Z,9.70
2023-03-04T12:07:42.893Z,9.70
2023-03-04T12:10:09.399Z,9.70
2023-03-04T12:12:35.899Z,9.70
2023-03-04T12:15:02.400Z,9.70
2023-03-04T12:17:28.876Z,9.70
2023-03-04T12:19:55.358Z,9.70
2023-03-04T12:22:21.803Z,9.70
2023-03-04T12:24:48.275Z,9.70
2023-03-04T12:27:14.748Z,9.70
2023-03-04T12:29:41.251Z,9.70
2023-03-04T12:32:07.754Z,9.70
2023-03-04T12:34:34.277Z,9.70
2023-03-04T12:37:00.757Z,9.70
2023-03-04T12:39:27.250Z,9.70
2023-03-04T12:41:53.721Z,9.70
2023-03-04T12:44:20.308Z,9.70
2023-03-04T12:46:46.868Z,9.80
2023-03-04T12:49:13.361Z,9.70
2023-03-04T12:51:39.840Z,9.70
2023-03-04T12:54:06.305Z,9.70
2023-03-04T12:56:32.785Z,9.70
2023-03-04T12:58:59.270Z,9.70
2023-03-04T13:01:25.763Z,9.70
2023-03-04T13:03:52.271Z,9.70
2023-03-04T13:06:18.831Z,9.70
2023-03-04T13:08:45.309Z,9.70
2023-03-04T13:11:11.798Z,9.70
2023-03-04T13:13:38.281Z,9.70
2023-03-04T13:16:04.806Z,9.70
2023-03-04T13:18:31.306Z,9.70
2023-03-04T13:20:57.946Z,9.70
2023-03-04T13:23:24.421Z,9.70
2023-03-04T13:25:50.985Z,9.70
2023-03-04T13:28:17.526Z,9.70
2023-03-04T13:30:44.032Z,9.70
2023-03-04T13:33:10.549Z,9.70
2023-03-04T13:35:37.120Z,9.70
2023-03-04T13:38:04.968Z,9.70
2023-03-04T13:40:31.514Z,9.70
2023-03-04T13:42:57.972Z,9.80
2023-03-04T13:45:24.459Z,9.80
2023-03-04T13:47:50.930Z,9.80
2023-03-04T13:50:17.424Z,9.70
2023-03-04T13:52:43.895Z,9.80
2023-03-04T13:55:10.387Z,9.70
2023-03-04T13:57:36.864Z,9.80
2023-03-04T14:00:03.320Z,9.80
2023-03-04T14:02:29.777Z,9.80
2023-03-04T14:04:56.240Z,9.80
2023-03-04T14:07:22.724Z,9.80
2023-03-04T14:09:49.208Z,9.80
2023-03-04T14:12:15.680Z,9.80
2023-03-04T14:14:42.156Z,9.80
2023-03-04T14:17:08.663Z,9.80
2023-03-04T14:19:35.148Z,9.70
2023-03-04T14:22:01.628Z,9.80
2023-03-04T14:24:28.112Z,9.80
2023-03-04T14:26:54.603Z,9.70
2023-03-04T14:29:21.057Z,9.70
2023-03-04T14:31:47.553Z,9.70
2023-03-04T14:34:14.048Z,9.70
2023-03-04T14:36:40.504Z,9.80
2023-03-04T14:39:06.986Z,9.80
2023-03-04T14:41:33.468Z,9.80
2023-03-04T14:43:59.939Z,9.80
2023-03-04T14:46:26.436Z,9.80
2023-03-04T14:48:52.915Z,9.80
2023-03-04T14:51:19.396Z,9.80
2023-03-04T14:53:45.891Z,9.80
2023-03-04T14:56:12.370Z,9.80
2023-03-04T14:58:38.856Z,9.80
2023-03-04T15:01:05.390Z,9.80
2023-03-04T15:03:32.103Z,9.80
2023-03-04T15:05:58.674Z,9.80
2023-03-04T15:08:25.148Z,9.90
2023-03-04T15:10:51.656Z,9.90
2023-03-04T15:13:18.127Z,9.90
2023-03-04T15:15:44.684Z,9.90
2023-03-04T15:18:11.241Z,9.80
2023-03-04T15:20:37.738Z,9.90
2023-03-04T15:23:04.224Z,9.90
2023-03-04T15:25:30.728Z,9.80
2023-03-04T15:27:57.218Z,9.80
2023-03-04T15:30:23.720Z,9.80
2023-03-04T15:32:50.186Z,9.80
2023-03-04T15:35:22.044Z,9.80
2023-03-04T15:37:48.540Z,9.80
2023-03-04T15:40:15.055Z,9.80
2023-03-04T15:42:41.546Z,9.80
2023-03-04T15:45:08.028Z,9.80
2023-03-04T15:47:34.501Z,9.80
2023-03-04T15:50:00.983Z,9.80
2023-03-04T15:52:27.477Z,9.80
2023-03-04T15:54:53.931Z,9.80
2023-03-04T15:57:20.413Z,9.80
2023-03-04T15:59:46.885Z,9.90
2023-03-04T16:02:13.357Z,9.90
2023-03-04T16:04:39.849Z,9.90
2023-03-04T16:07:06.339Z,9.90
2023-03-04T16:09:32.831Z,9.80
2023-03-04T16:11:59.297Z,9.70
2023-03-04T16:14:25.752Z,9.80
2023-03-04T16:16:52.232Z,9.80
2023-03-04T16:19:18.715Z,9.80
2023-03-04T16:21:46.063Z,9.80
2023-03-04T16:24:12.543Z,9.90
2023-03-04T16:26:38.995Z,9.90
2023-03-04T16:29:05.475Z,9.80
2023-03-04T16:31:32.010Z,9.80
2023-03-04T16:33:58.504Z,9.80
2023-03-04T16:36:25.030Z,9.80
2023-03-04T16:38:51.535Z,9.90
2023-03-04T16:41:18.017Z,9.80
2023-03-04T16:43:44.498Z,9.80
2023-03-04T16:46:11.029Z,9.90
2023-03-04T16:48:37.526Z,9.90
2023-03-04T16:51:04.009Z,9.90
2023-03-04T16:53:30.470Z,9.90
2023-03-04T16:55:56.958Z,9.90
2023-03-04T16:58:23.434Z,9.90
2023-03-04T17:00:49.926Z,9.90
2023-03-04T17:03:16.406Z,9.80
2023-03-04T17:05:42.912Z,9.80
2023-03-04T17:08:09.385Z,9.80
2023-03-04T17:10:35.879Z,9.80
2023-03-04T17:13:02.339Z,9.80
2023-03-04T17:15:28.850Z,9.90
2023-03-04T17:17:55.311Z,9.90
2023-03-04T17:20:21.801Z,9.80
2023-03-04T17:22:48.265Z,9.80
2023-03-04T17:25:14.726Z,9.80
2023-03-04T17:27:41.212Z,9.80
2023-03-04T17:30:08.961Z,9.80
2023-03-04T17:32:36.979Z,9.80
2023-03-04T17:35:03.443Z,9.80
2023-03-04T17:37:29.902Z,9.80
2023-03-04T17:39:56.371Z,9.80
2023-03-04T17:42:22.853Z,9.90
2023-03-04T17:44:49.335Z,9.80
2023-03-04T17:47:15.820Z,9.90
2023-03-04T17:49:42.284Z,9.90
2023-03-04T17:52:08.760Z,9.90
2023-03-04T17:54:35.242Z,9.80
2023-03-04T17:57:01.738Z,9.80
2023-03-04T17:59:28.218Z,9.90
2023-03-04T18:01:54.722Z,9.90
2023-03-04T18:04:21.259Z,9.90
2023-03-04T18:06:47.753Z,9.90
2023-03-04T18:09:14.230Z,10.00
2023-03-04T18:11:40.725Z,9.90
2023-03-04T18:14:10.337Z,10.00
2023-03-04T18:16:36.835Z,10.00
2023-03-04T18:19:03.323Z,10.00
2023-03-04T18:21:29.787Z,9.90
2023-03-04T18:23:56.263Z,9.90
2023-03-04T18:26:22.728Z,9.90
2023-03-04T18:28:49.193Z,10.00
2023-03-04T18:31:17.360Z,9.90
2023-03-04T18:33:43.882Z,9.90
2023-03-04T18:36:10.380Z,9.90
2023-03-04T18:38:36.850Z,9.90
2023-03-04T18:41:03.344Z,10.00
2023-03-04T18:43:29.813Z,10.00
2023-03-04T18:45:56.352Z,9.90
2023-03-04T18:48:22.827Z,9.90
2023-03-04T18:50:49.318Z,9.90
2023-03-04T18:53:15.789Z,10.00
2023-03-04T18:55:42.240Z,10.00
2023-03-04T18:58:08.726Z,9.90
2023-03-04T19:00:35.216Z,10.00
2023-03-04T19:03:01.678Z,10.00
2023-03-04T19:05:28.143Z,10.00
2023-03-04T19:07:54.614Z,9.90
2023-03-04T19:10:21.096Z,9.90
2023-03-04T19:12:47.598Z,9.90
2023-03-04T19:15:14.068Z,9.90
2023-03-04T19:17:40.548Z,10.00
2023-03-04T19:20:07.025Z,10.00
2023-03-04T19:22:33.527Z,10.00
2023-03-04T19:24:59.989Z,10.10
2023-03-04T19:27:26.466Z,10.10
2023-03-04T19:29:52.969Z,10.10
2023-03-04T19:32:19.474Z,10.20
2023-03-04T19:34:45.982Z,10.20
2023-03-04T19:37:12.446Z,10.20
2023-03-04T19:39:38.935Z,10.20
2023-03-04T19:42:05.434Z,10.20
2023-03-04T19:44:31.946Z,10.10
2023-03-04T19:46:58.454Z,10.10
2023-03-04T19:49:24.931Z,10.10
2023-03-04T19:51:51.440Z,10.10
2023-03-04T19:54:17.918Z,10.10
2023-03-04T19:56:44.421Z,10.10
2023-03-04T19:59:10.876Z,10.10
2023-03-04T20:01:37.444Z,10.10
2023-03-04T20:04:04.031Z,10.10
2023-03-04T20:06:30.546Z,10.10
2023-03-04T20:08:57.011Z,10.10
2023-03-04T20:11:23.487Z,10.10
2023-03-04T20:13:49.979Z,10.00
2023-03-04T20:16:16.565Z,10.00
2023-03-04T20:18:43.107Z,10.00
2023-03-04T20:21:09.576Z,10.00
2023-03-04T20:23:36.061Z,10.00
2023-03-04T20:26:02.525Z,10.00
2023-03-04T20:28:28.992Z,10.00
2023-03-04T20:30:55.482Z,10.00
2023-03-04T20:33:21.974Z,10.00
2023-03-04T20:35:48.495Z,10.00
2023-03-04T20:38:15.008Z,10.00
2023-03-04T20:40:41.520Z,9.90
2023-03-04T20:43:08.029Z,9.90
2023-03-04T20:45:34.515Z,10.00
2023-03-04T20:48:01.014Z,9.90
2023-03-04T20:50:27.507Z,9.90
2023-03-04T20:52:53.990Z,10.00
2023-03-04T20:55:20.471Z,10.00
2023-03-04T20:57:46.958Z,10.00
2023-03-04T21:00:13.436Z,10.00
2023-03-04T21:02:39.925Z,10.00
2023-03-04T21:05:06.385Z,10.00
2023-03-04T21:07:32.843Z,10.00
2023-03-04T21:09:59.302Z,10.00
2023-03-04T21:12:25.794Z,10.00
2023-03-04T21:14:52.251Z,10.00
2023-03-04T21:17:18.738Z,10.00
2023-03-04T21:19:45.238Z,10.00
2023-03-04T21:22:11.716Z,9.90
2023-03-04T21:24:38.195Z,9.90
2023-03-04T21:27:04.747Z,10.00
2023-03-04T21:29:31.229Z,10.00
2023-03-04T21:31:57.784Z,10.00
2023-03-04T21:34:24.298Z,10.00
2023-03-04T21:36:52.285Z,9.90
2023-03-04T21:39:18.789Z,9.90
2023-03-04T21:41:45.263Z,9.90
2023-03-04T21:44:22.532Z,9.90
2023-03-04T21:46:54.859Z,9.90
2023-03-04T21:49:21.392Z,9.90
2023-03-04T21:51:47.870Z,9.90
2023-03-04T21:54:14.369Z,10.00
2023-03-04T21:56:46.553Z,9.90
2023-03-04T21:59:13.037Z,10.00
2023-03-04T22:01:39.534Z,10.00
2023-03-04T22:04:06.072Z,9.90
2023-03-04T22:06:32.561Z,9.90
2023-03-04T22:08:59.051Z,9.90
2023-03-04T22:11:25.512Z,9.90
2023-03-04T22:13:51.981Z,9.90
2023-03-04T22:16:18.483Z,9.90
2023-03-04T22:18:44.975Z,10.00
2023-03-04T22:21:11.467Z,10.00
2023-03-04T22:23:37.961Z,10.00
2023-03-04T22:26:04.460Z,10.00
2023-03-04T22:28:30.970Z,10.00
2023-03-04T22:30:57.433Z,10.00
2023-03-04T22:33:23.903Z,10.00
2023-03-04T22:35:50.432Z,10.00
2023-03-04T22:38:16.965Z,9.90
2023-03-04T22:40:43.438Z,9.90
2023-03-04T22:43:09.922Z,9.90
2023-03-04T22:45:36.444Z,9.90
2023-03-04T22:48:02.983Z,10.00
2023-03-04T22:50:29.465Z,10.00
2023-03-04T22:52:55.942Z,9.90
2023-03-04T22:55:22.415Z,9.90
2023-03-04T22:57:48.876Z,9.90
2023-03-04T23:00:15.334Z,9.90
2023-03-04T23:02:41.831Z,9.80
2023-03-04T23:05:08.340Z,9.90
2023-03-04T23:07:34.823Z,10.00
2023-03-04T23:10:01.319Z,10.00
2023-03-04T23:12:27.799Z,10.00
2023-03-04T23:14:54.314Z,9.90
2023-03-04T23:17:20.836Z,10.00
2023-03-04T23:19:47.318Z,10.00
2023-03-04T23:22:13.803Z,9.90
2023-03-04T23:24:40.281Z,9.80
2023-03-04T23:27:06.758Z,9.80
2023-03-04T23:29:33.231Z,9.70
2023-03-04T23:31:59.725Z,9.70
2023-03-04T23:34:26.242Z,9.80
2023-03-04T23:36:52.705Z,9.70
2023-03-04T23:39:19.180Z,9.80
2023-03-04T23:41:45.630Z,9.70
2023-03-04T23:44:12.121Z,9.80
2023-03-04T23:46:38.623Z,9.70
2023-03-04T23:49:05.138Z,9.70
2023-03-04T23:51:31.594Z,9.80
2023-03-04T23:53:58.093Z,9.80
2023-03-04T23:56:24.573Z,9.70
2023-03-04T23:58:51.076Z,9.80
